Time;durP1;ratioP1;P1;durP2;ratioP2;P2;SDS_P1;SDS_P2;PMS_P1;PMS_P2;Temp;Humidity;BMP_temperature;BMP_pressure;BME280_temperature;BME280_humidity;BME280_pressure;Samples;Min_cycle;Max_cycle;Signal;HPM_P1;HPM_P2
2023/07/01 00:01:36;;;;;;;11.70;7.70;;;;;;;16.43;100.00;100388.70;109329;1244;72604;-70
2023/07/01 00:04:04;;;;;;;10.50;7.50;;;;;;;16.41;100.00;100390.88;109291;1243;70747;-69
2023/07/01 00:06:33;;;;;;;11.50;7.50;;;;;;;16.40;100.00;100389.55;109309;1243;65171;-70
2023/07/01 00:09:02;;;;;;;11.20;7.30;;;;;;;16.38;100.00;100393.29;109216;1244;63180;-71
2023/07/01 00:11:31;;;;;;;10.40;7.20;;;;;;;16.39;100.00;100395.65;109364;1245;57697;-70
2023/07/01 00:14:00;;;;;;;10.20;7.40;;;;;;;16.41;100.00;100393.84;109321;1244;62856;-70
2023/07/01 00:16:29;;;;;;;11.10;7.60;;;;;;;16.44;100.00;100397.13;109234;1244;71938;-71
2023/07/01 00:18:58;;;;;;;12.00;7.20;;;;;;;16.40;100.00;100400.27;109368;1243;70367;-70
2023/07/01 00:21:27;;;;;;;10.50;7.60;;;;;;;16.38;100.00;100408.91;109245;1243;74184;-70
2023/07/01 00:23:56;;;;;;;11.10;7.50;;;;;;;16.36;100.00;100409.14;109068;1244;374547;-70
2023/07/01 00:26:25;;;;;;;11.30;7.40;;;;;;;16.33;100.00;100411.23;109247;1244;61613;-70
2023/07/01 00:28:53;;;;;;;11.30;7.20;;;;;;;16.29;100.00;100410.18;109315;1243;73417;-70
2023/07/01 00:31:22;;;;;;;11.60;7.80;;;;;;;16.32;100.00;100411.02;109250;1243;61930;-69
2023/07/01 00:33:51;;;;;;;10.90;7.40;;;;;;;16.35;100.00;100414.56;109415;1243;59849;-69
2023/07/01 00:36:20;;;;;;;13.10;8.00;;;;;;;16.38;100.00;100412.24;109443;1245;63111;-69
2023/07/01 00:38:49;;;;;;;11.40;8.00;;;;;;;16.43;100.00;100407.59;109454;1245;57601;-71
2023/07/01 00:41:20;;;;;;;10.90;7.40;;;;;;;16.47;100.00;100402.41;109474;1243;61307;-69
2023/07/01 00:43:49;;;;;;;10.40;7.60;;;;;;;16.49;100.00;100399.81;109383;1245;63279;-69
2023/07/01 00:46:18;;;;;;;9.90;8.00;;;;;;;16.49;100.00;100397.27;109397;1246;61467;-69
2023/07/01 00:48:47;;;;;;;13.20;7.80;;;;;;;16.56;100.00;100394.68;109495;1244;59024;-70
2023/07/01 00:51:16;;;;;;;12.10;8.10;;;;;;;16.67;100.00;100394.52;109280;1243;63086;-70
2023/07/01 00:53:45;;;;;;;10.10;7.60;;;;;;;16.74;100.00;100389.89;109384;1243;57221;-70
2023/07/01 00:56:14;;;;;;;10.30;7.90;;;;;;;16.76;100.00;100390.32;109426;1244;57819;-70
2023/07/01 00:58:43;;;;;;;9.60;7.40;;;;;;;16.76;100.00;100388.58;109288;1243;71537;-70
2023/07/01 01:01:19;;;;;;;11.60;7.70;;;;;;;16.76;100.00;100390.69;109268;1243;62914;-70
2023/07/01 01:04:09;;;;;;;11.10;8.30;;;;;;;16.79;100.00;100383.47;109232;1243;59628;-70
2023/07/01 01:06:46;;;;;;;12.20;8.20;;;;;;;16.96;100.00;100375.36;109243;1245;73957;-69
2023/07/01 01:09:31;;;;;;;12.90;7.70;;;;;;;17.10;100.00;100373.25;109180;1243;61439;-70
2023/07/01 01:12:02;;;;;;;14.40;9.10;;;;;;;17.16;100.00;100374.16;109233;1243;59994;-69
2023/07/01 01:14:33;;;;;;;10.60;8.20;;;;;;;17.31;100.00;100373.30;109232;1243;73991;-69
2023/07/01 01:17:05;;;;;;;10.70;8.10;;;;;;;17.29;100.00;100376.86;109379;1244;61189;-70
2023/07/01 01:19:46;;;;;;;13.00;8.40;;;;;;;17.20;100.00;100374.09;109263;1243;69808;-71
2023/07/01 01:22:34;;;;;;;11.40;8.30;;;;;;;17.24;100.00;100375.77;109450;1243;73414;-69
2023/07/01 01:25:27;;;;;;;11.10;8.50;;;;;;;17.34;100.00;100377.16;109358;1243;57371;-70
2023/07/01 01:27:57;;;;;;;10.10;8.00;;;;;;;17.43;100.00;100372.55;109142;1247;61053;-70
2023/07/01 01:30:32;;;;;;;11.00;8.40;;;;;;;17.49;100.00;100371.40;109161;1243;75043;-70
2023/07/01 01:33:02;;;;;;;12.70;8.40;;;;;;;17.59;100.00;100366.43;109343;1243;72930;-71
2023/07/01 01:35:30;;;;;;;13.00;8.50;;;;;;;17.58;100.00;100361.73;109421;1243;70322;-71
2023/07/01 01:38:10;;;;;;;11.10;8.00;;;;;;;17.55;100.00;100361.90;109418;1244;62819;-72
2023/07/01 01:40:47;;;;;;;12.40;7.80;;;;;;;17.48;100.00;100362.45;109520;1243;57114;-72
2023/07/01 01:43:34;;;;;;;11.30;8.60;;;;;;;17.38;100.00;100364.77;109478;1243;60508;-73
2023/07/01 01:46:05;;;;;;;11.50;8.10;;;;;;;17.31;100.00;100364.83;109447;1244;62796;-70
2023/07/01 01:48:37;;;;;;;12.30;8.20;;;;;;;17.25;100.00;100368.17;109446;1244;61768;-71
2023/07/01 01:51:08;;;;;;;16.50;8.30;;;;;;;17.12;100.00;100363.00;109371;1247;60056;-71
2023/07/01 01:53:39;;;;;;;10.00;7.90;;;;;;;17.02;100.00;100357.40;109378;1243;62538;-70
2023/07/01 01:56:09;;;;;;;10.40;7.70;;;;;;;16.91;100.00;100358.29;109412;1245;62991;-70
2023/07/01 01:58:38;;;;;;;15.00;8.90;;;;;;;16.83;100.00;100352.10;109205;1250;57213;-70
2023/07/01 02:01:07;;;;;;;11.70;8.40;;;;;;;16.77;100.00;100354.19;109403;1247;63146;-70
2023/07/01 02:03:36;;;;;;;12.00;8.20;;;;;;;16.74;100.00;100355.42;109473;1244;60989;-70
2023/07/01 02:06:06;;;;;;;14.10;8.20;;;;;;;16.73;100.00;100354.29;109502;1243;70082;-69
2023/07/01 02:08:35;;;;;;;9.40;7.50;;;;;;;16.69;100.00;100353.77;109426;1243;74373;-69
2023/07/01 02:11:04;;;;;;;10.80;7.70;;;;;;;16.60;100.00;100354.61;109461;1243;62899;-70
2023/07/01 02:13:33;;;;;;;11.70;8.00;;;;;;;16.55;100.00;100358.84;109528;1244;61655;-69
2023/07/01 02:16:02;;;;;;;9.70;7.60;;;;;;;16.53;100.00;100361.88;109404;1244;63036;-70
2023/07/01 02:18:31;;;;;;;13.20;8.70;;;;;;;16.51;100.00;100360.70;109536;1244;60963;-69
2023/07/01 02:21:00;;;;;;;10.00;7.50;;;;;;;16.48;100.00;100360.52;109512;1244;69297;-70
2023/07/01 02:23:29;;;;;;;11.50;8.30;;;;;;;16.47;100.00;100362.30;109446;1244;64169;-70
2023/07/01 02:25:58;;;;;;;10.70;7.90;;;;;;;16.50;100.00;100365.77;109392;1246;62237;-70
2023/07/01 02:28:26;;;;;;;9.40;7.50;;;;;;;16.50;100.00;100369.60;109530;1243;62322;-70
2023/07/01 02:30:55;;;;;;;11.10;8.20;;;;;;;16.48;100.00;100366.41;109473;1244;62657;-69
2023/07/01 02:33:24;;;;;;;11.90;8.30;;;;;;;16.50;100.00;100364.88;109470;1247;61715;-70
2023/07/01 02:35:53;;;;;;;12.20;9.70;;;;;;;16.57;100.00;100361.63;109631;1244;60031;-70
2023/07/01 02:38:22;;;;;;;11.20;8.40;;;;;;;16.78;100.00;100362.48;109741;1244;73049;-69
2023/07/01 02:40:50;;;;;;;13.30;8.50;;;;;;;16.81;100.00;100366.04;109594;1247;63258;-69
2023/07/01 02:43:19;;;;;;;11.40;8.30;;;;;;;16.88;100.00;100364.45;109587;1247;57197;-69
2023/07/01 02:45:48;;;;;;;11.20;8.30;;;;;;;16.96;100.00;100361.15;109690;1244;63140;-69
2023/07/01 02:48:17;;;;;;;10.00;8.30;;;;;;;17.10;100.00;100364.11;109659;1243;71434;-69
2023/07/01 02:50:45;;;;;;;10.10;7.90;;;;;;;17.22;100.00;100367.89;109626;1243;61517;-70
2023/07/01 02:53:15;;;;;;;10.80;8.20;;;;;;;17.28;100.00;100366.10;109455;1243;74342;-70
2023/07/01 02:55:45;;;;;;;11.00;7.80;;;;;;;17.35;100.00;100363.30;109374;1247;61098;-71
2023/07/01 02:58:14;;;;;;;11.80;8.60;;;;;;;17.51;100.00;100360.02;109468;1243;57144;-71
2023/07/01 03:00:43;;;;;;;12.10;8.00;;;;;;;17.60;100.00;100361.73;109487;1244;62152;-70
2023/07/01 03:03:13;;;;;;;12.30;8.40;;;;;;;17.64;100.00;100362.60;109445;1243;72372;-71
2023/07/01 03:05:41;;;;;;;9.20;7.70;;;;;;;17.70;100.00;100364.69;109416;1243;70864;-71
2023/07/01 03:08:10;;;;;;;14.40;7.70;;;;;;;17.69;100.00;100364.16;109293;1244;63722;-71
2023/07/01 03:10:39;;;;;;;12.10;8.10;;;;;;;17.65;100.00;100365.58;109522;1242;57493;-71
2023/07/01 03:13:08;;;;;;;10.10;6.90;;;;;;;17.63;100.00;100364.24;109600;1241;61223;-71
2023/07/01 03:15:37;;;;;;;10.30;8.00;;;;;;;17.59;100.00;100364.72;109623;1241;73250;-71
2023/07/01 03:18:07;;;;;;;12.30;8.10;;;;;;;17.58;100.00;100364.11;109597;1242;72576;-71
2023/07/01 03:20:36;;;;;;;13.40;8.90;;;;;;;17.64;100.00;100360.11;109674;1242;59583;-72
2023/07/01 03:23:06;;;;;;;15.70;9.10;;;;;;;17.76;100.00;100357.94;109670;1243;71369;-71
2023/07/01 03:25:35;;;;;;;12.80;8.60;;;;;;;17.87;100.00;100358.16;109486;1247;63534;-71
2023/07/01 03:28:04;;;;;;;12.10;8.40;;;;;;;17.98;100.00;100353.93;109515;1243;61677;-71
2023/07/01 03:30:33;;;;;;;12.20;8.50;;;;;;;18.12;100.00;100351.23;109548;1243;63853;-70
2023/07/01 03:33:02;;;;;;;10.80;8.40;;;;;;;18.18;100.00;100356.70;109532;1244;61793;-71
2023/07/01 03:35:31;;;;;;;10.30;8.50;;;;;;;18.18;100.00;100356.99;109533;1243;69684;-71
2023/07/01 03:37:59;;;;;;;10.30;8.30;;;;;;;18.17;100.00;100361.92;109570;1243;73290;-71
2023/07/01 03:40:28;;;;;;;14.40;8.70;;;;;;;18.15;100.00;100357.60;109581;1244;57637;-71
2023/07/01 03:42:57;;;;;;;15.00;9.10;;;;;;;18.13;100.00;100356.86;109657;1243;57134;-70
2023/07/01 03:45:26;;;;;;;14.50;9.00;;;;;;;18.16;100.00;100356.44;109644;1244;73563;-71
2023/07/01 03:47:54;;;;;;;14.40;10.00;;;;;;;18.21;100.00;100354.98;109620;1243;72553;-70
2023/07/01 03:50:23;;;;;;;13.10;9.40;;;;;;;18.28;100.00;100360.27;109650;1243;60744;-72
2023/07/01 03:52:52;;;;;;;13.30;9.80;;;;;;;18.39;100.00;100358.56;109516;1242;63236;-72
2023/07/01 03:55:20;;;;;;;12.30;10.00;;;;;;;18.52;100.00;100357.98;109635;1243;62937;-73
2023/07/01 03:57:49;;;;;;;13.10;9.90;;;;;;;18.65;100.00;100358.12;109645;1242;57310;-71
2023/07/01 04:00:18;;;;;;;15.20;10.00;;;;;;;18.74;100.00;100360.84;109536;1243;62296;-71
2023/07/01 04:02:49;;;;;;;19.10;10.30;;;;;;;18.86;100.00;100356.23;109457;1243;61678;-70
2023/07/01 04:05:18;;;;;;;16.30;9.90;;;;;;;19.00;100.00;100357.59;109243;1243;60078;-71
2023/07/01 04:07:49;;;;;;;16.20;9.70;;;;;;;19.11;100.00;100361.98;109455;1243;63778;-70
2023/07/01 04:10:17;;;;;;;17.70;10.50;;;;;;;19.21;100.00;100364.32;109415;1246;57716;-70
2023/07/01 04:12:46;;;;;;;14.40;11.20;;;;;;;19.33;100.00;100369.48;109552;1243;57922;-72
2023/07/01 04:15:15;;;;;;;33.00;19.70;;;;;;;19.45;100.00;100367.48;109531;1243;62935;-72
2023/07/01 04:17:47;;;;;;;18.30;11.70;;;;;;;19.51;100.00;100364.26;109519;1243;60953;-70
2023/07/01 04:20:15;;;;;;;16.40;12.00;;;;;;;19.55;100.00;100359.42;109392;1243;69801;-69
2023/07/01 04:22:45;;;;;;;19.70;12.10;;;;;;;19.62;100.00;100359.90;109396;1243;73698;-70
2023/07/01 04:25:14;;;;;;;18.80;10.70;;;;;;;19.65;100.00;100358.77;109269;1247;63333;-70
2023/07/01 04:27:43;;;;;;;15.20;10.90;;;;;;;19.70;100.00;100363.02;109410;1243;61788;-70
2023/07/01 04:30:13;;;;;;;18.50;11.80;;;;;;;19.74;100.00;100364.80;109371;1244;73920;-71
2023/07/01 04:32:42;;;;;;;16.50;10.20;;;;;;;19.79;100.00;100364.23;109200;1244;72492;-70
2023/07/01 04:35:11;;;;;;;14.50;11.20;;;;;;;19.85;100.00;100364.08;109275;1243;70170;-69
2023/07/01 04:37:40;;;;;;;15.40;11.10;;;;;;;19.95;100.00;100360.40;109313;1243;73768;-72
2023/07/01 04:40:09;;;;;;;20.20;11.30;;;;;;;20.03;100.00;100363.84;109105;1245;62067;-73
2023/07/01 04:42:50;;;;;;;16.20;10.90;;;;;;;20.10;100.00;100365.05;109162;1244;61421;-72
2023/07/01 04:45:19;;;;;;;16.10;10.40;;;;;;;20.15;100.00;100365.69;109282;1243;63441;-70
2023/07/01 04:47:48;;;;;;;14.60;10.50;;;;;;;20.22;100.00;100365.80;109303;1243;61640;-68
2023/07/01 04:50:17;;;;;;;15.60;11.00;;;;;;;20.31;100.00;100365.85;109222;1243;70492;-71
2023/07/01 04:52:46;;;;;;;15.20;10.30;;;;;;;20.40;100.00;100368.64;109308;1243;64392;-70
2023/07/01 04:55:15;;;;;;;15.60;10.40;;;;;;;20.51;100.00;100367.09;109296;1244;57184;-71
2023/07/01 04:57:44;;;;;;;21.10;12.50;;;;;;;20.60;100.00;100366.84;109251;1244;57677;-72
2023/07/01 05:00:14;;;;;;;15.10;10.10;;;;;;;20.77;100.00;100369.14;109428;1244;70635;-73
2023/07/01 05:02:43;;;;;;;16.90;10.10;;;;;;;20.95;100.00;100368.09;109366;1244;70409;-71
2023/07/01 05:05:12;;;;;;;12.40;10.20;;;;;;;21.11;100.00;100374.97;109454;1243;60537;-71
2023/07/01 05:07:41;;;;;;;14.00;10.90;;;;;;;21.25;99.50;100376.48;109454;1242;63313;-71
2023/07/01 05:10:10;;;;;;;15.60;10.70;;;;;;;21.41;98.82;100374.46;109496;1244;60302;-71
2023/07/01 05:12:39;;;;;;;17.80;10.90;;;;;;;21.55;97.72;100372.83;109462;1243;61798;-71
2023/07/01 05:15:08;;;;;;;14.30;10.10;;;;;;;21.67;96.48;100377.89;109530;1243;74363;-70
2023/07/01 05:17:38;;;;;;;18.10;9.40;;;;;;;21.81;94.92;100372.02;109559;1243;61329;-69
2023/07/01 05:20:08;;;;;;;14.00;9.20;;;;;;;21.92;93.04;100372.98;109437;1243;70457;-71
2023/07/01 05:22:37;;;;;;;16.80;8.80;;;;;;;21.98;92.21;100370.33;109380;1246;63806;-67
2023/07/01 05:25:06;;;;;;;12.10;8.50;;;;;;;22.06;91.51;100371.66;109381;1244;57172;-67
2023/07/01 05:27:35;;;;;;;11.40;8.50;;;;;;;22.14;90.01;100372.47;109479;1243;57695;-65
2023/07/01 05:30:05;;;;;;;16.20;9.60;;;;;;;22.28;89.87;100371.05;109502;1243;73546;-64
2023/07/01 05:32:34;;;;;;;13.90;9.10;;;;;;;22.43;88.96;100370.77;109542;1243;62792;-64
2023/07/01 05:35:03;;;;;;;11.00;8.20;;;;;;;22.69;90.12;100367.95;109486;1244;69749;-63
2023/07/01 05:37:32;;;;;;;11.30;8.40;;;;;;;22.82;87.48;100368.91;109410;1243;74833;-64
2023/07/01 05:40:00;;;;;;;12.50;8.10;;;;;;;22.89;86.06;100371.00;109306;1247;60076;-64
2023/07/01 05:42:29;;;;;;;10.70;7.80;;;;;;;22.96;86.37;100370.13;109425;1244;57490;-64
2023/07/01 05:44:58;;;;;;;12.40;9.40;;;;;;;23.11;86.84;100365.05;109394;1243;71901;-65
2023/07/01 05:47:26;;;;;;;12.10;7.90;;;;;;;23.25;85.54;100361.13;109408;1244;71818;-66
2023/07/01 05:49:55;;;;;;;12.50;7.60;;;;;;;23.34;85.21;100362.45;109373;1243;60452;-65
2023/07/01 05:52:24;;;;;;;14.50;8.20;;;;;;;23.53;85.34;100362.43;109423;1244;62499;-67
2023/07/01 05:54:55;;;;;;;11.90;8.00;;;;;;;23.72;85.45;100356.52;109419;1245;57730;-68
2023/07/01 05:57:24;;;;;;;10.80;7.80;;;;;;;23.81;82.79;100354.80;109427;1244;57632;-68
2023/07/01 05:59:52;;;;;;;10.50;6.70;;;;;;;23.85;82.45;100354.55;109391;1243;73610;-68
2023/07/01 06:02:21;;;;;;;10.00;6.50;;;;;;;24.01;83.31;100357.61;109387;1244;62034;-68
2023/07/01 06:04:50;;;;;;;10.50;7.10;;;;;;;24.08;83.73;100356.79;109382;1243;60048;-68
2023/07/01 06:07:19;;;;;;;12.70;8.30;;;;;;;24.13;82.80;100355.79;109345;1244;73900;-68
2023/07/01 06:09:49;;;;;;;9.80;8.20;;;;;;;24.02;83.55;100357.45;109407;1244;60934;-68
2023/07/01 06:12:18;;;;;;;11.50;8.60;;;;;;;24.18;82.44;100359.23;109437;1243;61813;-67
2023/07/01 06:14:46;;;;;;;11.40;8.40;;;;;;;24.32;82.64;100358.02;109348;1244;73250;-67
2023/07/01 06:17:15;;;;;;;10.40;8.10;;;;;;;24.39;82.60;100360.86;109421;1244;63852;-66
2023/07/01 06:19:44;;;;;;;12.00;8.90;;;;;;;24.43;82.29;100361.51;109353;1244;60050;-65
2023/07/01 06:22:13;;;;;;;10.20;7.40;;;;;;;24.44;81.04;100358.96;109388;1243;63339;-64
2023/07/01 06:24:42;;;;;;;11.20;7.90;;;;;;;24.65;81.04;100354.95;109444;1244;59623;-65
2023/07/01 06:27:11;;;;;;;10.00;7.90;;;;;;;24.72;79.72;100349.90;109374;1243;57704;-67
2023/07/01 06:29:39;;;;;;;12.50;7.90;;;;;;;24.70;79.23;100346.04;109447;1243;73504;-66
2023/07/01 06:32:08;;;;;;;9.40;7.00;;;;;;;24.75;78.48;100344.50;109478;1243;61461;-67
2023/07/01 06:34:37;;;;;;;16.20;7.70;;;;;;;24.94;73.96;100342.10;109497;1243;59492;-67
2023/07/01 06:37:06;;;;;;;10.30;7.90;;;;;;;25.10;71.63;100340.36;109372;1244;63151;-67
2023/07/01 06:39:35;;;;;;;13.00;7.80;;;;;;;25.04;70.06;100338.00;109463;1243;57640;-67
2023/07/01 06:42:07;;;;;;;10.30;7.60;;;;;;;25.13;70.04;100339.52;109562;1243;57660;-70
2023/07/01 06:44:35;;;;;;;11.30;7.40;;;;;;;24.96;70.49;100338.32;109352;1244;64934;-70
2023/07/01 06:47:05;;;;;;;9.50;7.10;;;;;;;24.79;71.85;100338.08;109485;1244;62136;-69
2023/07/01 06:49:34;;;;;;;8.70;6.80;;;;;;;25.01;71.71;100338.21;109284;1244;59287;-69
2023/07/01 06:52:03;;;;;;;8.10;6.20;;;;;;;25.22;71.46;100337.45;109437;1245;62526;-69
2023/07/01 06:54:32;;;;;;;13.80;9.00;;;;;;;25.33;70.95;100337.79;109478;1243;57648;-69
2023/07/01 06:57:02;;;;;;;8.30;6.60;;;;;;;25.32;70.02;100340.58;109330;1244;61387;-68
2023/07/01 06:59:31;;;;;;;11.30;7.90;;;;;;;25.38;69.77;100339.39;109542;1243;74310;-67
2023/07/01 07:01:59;;;;;;;11.00;7.70;;;;;;;25.42;69.33;100336.08;109464;1243;72567;-71
2023/07/01 07:04:28;;;;;;;9.00;6.90;;;;;;;25.57;69.63;100341.48;109381;1244;60861;-72
2023/07/01 07:06:57;;;;;;;9.30;6.40;;;;;;;25.75;69.05;100339.52;109385;1245;63259;-71
2023/07/01 07:09:26;;;;;;;9.30;6.50;;;;;;;25.82;68.31;100337.84;109474;1244;61004;-74
2023/07/01 07:11:55;;;;;;;8.10;6.10;;;;;;;25.84;67.66;100336.70;109493;1243;57720;-70
2023/07/01 07:14:24;;;;;;;7.90;6.00;;;;;;;25.90;67.20;100340.77;109467;1243;72579;-72
2023/07/01 07:16:53;;;;;;;9.40;5.60;;;;;;;25.94;66.75;100340.73;109392;1243;62235;-70
2023/07/01 07:19:22;;;;;;;7.40;5.10;;;;;;;26.04;65.90;100342.98;109383;1245;60190;-68
2023/07/01 07:21:51;;;;;;;7.00;5.10;;;;;;;26.16;62.12;100347.77;109380;1244;64336;-71
2023/07/01 07:24:19;;;;;;;5.70;4.40;;;;;;;26.07;63.16;100347.19;109349;1244;60885;-69
2023/07/01 07:27:00;;;;;;;7.10;4.40;;;;;;;26.12;62.76;100350.39;109279;1244;57449;-68
2023/07/01 07:29:33;;;;;;;7.30;4.60;;;;;;;26.23;62.00;100347.56;109080;1247;63068;-68
2023/07/01 07:32:02;;;;;;;6.50;4.60;;;;;;;26.23;62.67;100341.62;109147;1245;61824;-69
2023/07/01 07:34:31;;;;;;;8.60;5.60;;;;;;;26.35;62.61;100338.41;109238;1243;70444;-69
2023/07/01 07:37:00;;;;;;;8.00;5.30;;;;;;;26.46;62.42;100339.22;109176;1245;63310;-70
2023/07/01 07:39:29;;;;;;;7.90;5.50;;;;;;;26.54;62.35;100339.38;109217;1243;57916;-80
2023/07/01 07:41:58;;;;;;;5.90;5.00;;;;;;;26.71;61.74;100341.71;109165;1244;59747;-69
2023/07/01 07:44:27;;;;;;;8.30;5.30;;;;;;;26.70;62.69;100336.61;109232;1243;74121;-70
2023/07/01 07:46:56;;;;;;;7.00;5.50;;;;;;;26.70;62.31;100329.65;109217;1243;63883;-70
2023/07/01 07:49:25;;;;;;;24.10;14.20;;;;;;;26.76;61.41;100329.20;109384;1243;69518;-70
2023/07/01 07:51:53;;;;;;;6.30;4.60;;;;;;;26.90;59.20;100325.51;109247;1243;64724;-70
2023/07/01 07:54:22;;;;;;;10.30;4.50;;;;;;;27.02;58.02;100324.58;109306;1247;61753;-70
2023/07/01 07:56:58;;;;;;;8.10;4.80;;;;;;;26.95;57.33;100320.38;109450;1244;57737;-69
2023/07/01 07:59:27;;;;;;;8.20;4.50;;;;;;;26.99;57.64;100320.73;109387;1244;72730;-68
2023/07/01 08:01:57;;;;;;;5.30;4.10;;;;;;;27.13;57.32;100318.41;109393;1243;63959;-68
2023/07/01 08:04:27;;;;;;;7.00;4.40;;;;;;;27.18;56.64;100319.45;109311;1243;63056;-68
2023/07/01 08:06:56;;;;;;;11.00;5.30;;;;;;;27.22;56.66;100317.73;109357;1245;63646;-68
2023/07/01 08:09:26;;;;;;;4.20;3.60;;;;;;;27.41;54.98;100316.82;109370;1246;57620;-68
2023/07/01 08:12:01;;;;;;;6.00;4.40;;;;;;;27.66;55.31;100312.85;109244;1244;60498;-67
2023/07/01 08:14:30;;;;;;;6.20;3.90;;;;;;;27.87;53.74;100308.52;109421;1244;73208;-66
2023/07/01 08:16:59;;;;;;;7.90;4.00;;;;;;;27.91;52.99;100308.73;109393;1244;62361;-67
2023/07/01 08:19:29;;;;;;;5.90;4.30;;;;;;;27.50;51.81;100306.23;109303;1243;61049;-67
2023/07/01 08:21:57;;;;;;;4.70;3.50;;;;;;;27.42;52.53;100310.92;109389;1243;73573;-66
2023/07/01 08:24:26;;;;;;;10.30;4.60;;;;;;;27.67;52.20;100307.95;109299;1245;57455;-67
2023/07/01 08:26:55;;;;;;;7.60;4.80;;;;;;;27.84;51.06;100306.88;109185;1245;57717;-66
2023/07/01 08:29:24;;;;;;;5.50;3.60;;;;;;;28.05;49.49;100310.21;109185;1246;62157;-66
2023/07/01 08:31:53;;;;;;;6.20;3.70;;;;;;;28.09;48.75;100305.46;109217;1244;71183;-66
2023/07/01 08:34:22;;;;;;;8.10;4.30;;;;;;;28.23;49.10;100300.13;109453;1243;69999;-67
2023/07/01 08:36:52;;;;;;;6.60;3.70;;;;;;;28.07;49.08;100299.89;109406;1244;74395;-67
2023/07/01 08:39:20;;;;;;;4.60;3.70;;;;;;;28.15;49.54;100304.30;109441;1246;60743;-67
2023/07/01 08:41:54;;;;;;;5.10;3.60;;;;;;;28.44;49.92;100303.73;109463;1246;60906;-67
2023/07/01 08:44:25;;;;;;;4.40;3.30;;;;;;;28.44;48.16;100307.73;109309;1247;63530;-67
2023/07/01 08:46:55;;;;;;;4.70;3.30;;;;;;;28.41;48.35;100305.02;109219;1247;69812;-67
2023/07/01 08:49:24;;;;;;;4.30;3.30;;;;;;;28.51;47.34;100300.08;109333;1247;60039;-67
2023/07/01 08:52:17;;;;;;;7.20;3.90;;;;;;;28.75;46.90;100301.08;109508;1244;63286;-68
2023/07/01 08:54:46;;;;;;;7.10;3.90;;;;;;;28.79;47.35;100303.02;109401;1244;57728;-67
2023/07/01 08:57:18;;;;;;;4.90;4.10;;;;;;;28.60;48.21;100296.37;109430;1246;61337;-68
2023/07/01 08:59:48;;;;;;;7.10;4.00;;;;;;;28.77;48.12;100294.51;109314;1243;74478;-67
2023/07/01 09:02:17;;;;;;;3.60;3.20;;;;;;;29.07;47.02;100293.83;109418;1243;63018;-67
2023/07/01 09:04:46;;;;;;;5.60;3.50;;;;;;;28.94;44.87;100293.94;109396;1244;70932;-66
2023/07/01 09:07:15;;;;;;;5.70;3.70;;;;;;;29.16;46.01;100288.43;109366;1244;73787;-68
2023/07/01 09:09:44;;;;;;;6.90;4.20;;;;;;;29.24;45.45;100290.23;109322;1246;57253;-67
2023/07/01 09:12:13;;;;;;;7.70;4.40;;;;;;;29.39;45.33;100287.34;109450;1244;57668;-67
2023/07/01 09:15:06;;;;;;;5.10;3.40;;;;;;;29.14;45.12;100281.23;109440;1245;64154;-69
2023/07/01 09:17:38;;;;;;;7.10;3.80;;;;;;;29.19;45.40;100282.85;109437;1244;61885;-70
2023/07/01 09:20:13;;;;;;;7.10;3.60;;;;;;;29.25;45.21;100281.48;109191;1244;60027;-69
2023/07/01 09:22:46;;;;;;;4.40;3.70;;;;;;;29.66;42.81;100279.17;109396;1243;65180;-70
2023/07/01 09:25:27;;;;;;;4.10;3.50;;;;;;;29.52;43.11;100278.92;109349;1246;60028;-70
2023/07/01 09:27:56;;;;;;;6.00;3.50;;;;;;;29.52;44.42;100273.20;109373;1244;57203;-68
2023/07/01 09:30:28;;;;;;;6.60;4.30;;;;;;;29.77;44.48;100263.35;109435;1244;72520;-69
2023/07/01 09:33:15;;;;;;;5.20;3.70;;;;;;;29.89;43.94;100266.81;109524;1244;70991;-71
2023/07/01 09:35:46;;;;;;;6.20;4.20;;;;;;;30.16;44.17;100269.80;109434;1243;70520;-75
2023/07/01 09:38:16;;;;;;;5.20;4.00;;;;;;;30.42;42.54;100265.17;109505;1243;73917;-72
2023/07/01 09:40:46;;;;;;;6.40;4.70;;;;;;;30.24;42.66;100256.23;109231;1247;57710;-71
2023/07/01 09:43:19;;;;;;;4.50;4.00;;;;;;;30.19;43.27;100253.70;109033;1244;57578;-71
2023/07/01 09:45:56;;;;;;;7.20;4.40;;;;;;;29.79;43.65;100253.58;109211;1243;73545;-70
2023/07/01 09:48:26;;;;;;;4.70;4.10;;;;;;;29.76;43.61;100247.73;109229;1243;61832;-71
2023/07/01 09:51:04;;;;;;;4.60;3.70;;;;;;;29.80;43.61;100245.46;109279;1243;59095;-70
2023/07/01 09:53:36;;;;;;;5.90;3.90;;;;;;;30.11;43.19;100246.20;109275;1244;62415;-70
2023/07/01 09:56:06;;;;;;;4.70;3.30;;;;;;;30.27;41.78;100246.09;109176;1248;61015;-71
2023/07/01 09:58:38;;;;;;;5.80;3.40;;;;;;;30.09;41.57;100237.40;109205;1243;57650;-71
2023/07/01 10:01:08;;;;;;;3.70;2.90;;;;;;;29.99;41.78;100237.21;109292;1243;66033;-71
2023/07/01 10:03:37;;;;;;;4.10;3.40;;;;;;;29.99;40.98;100229.77;109188;1243;62734;-70
2023/07/01 10:06:07;;;;;;;4.60;3.20;;;;;;;29.68;41.97;100225.89;109166;1243;70532;-71
2023/07/01 10:08:38;;;;;;;4.30;3.00;;;;;;;29.54;42.20;100225.30;109194;1243;65162;-71
2023/07/01 10:11:15;;;;;;;4.20;3.30;;;;;;;29.38;43.02;100223.48;109268;1247;61768;-72
2023/07/01 10:13:50;;;;;;;5.00;3.30;;;;;;;29.15;43.76;100225.08;109423;1243;57185;-71
2023/07/01 10:16:19;;;;;;;5.90;3.10;;;;;;;29.27;43.10;100224.40;109412;1244;72772;-72
2023/07/01 10:18:48;;;;;;;4.00;3.50;;;;;;;29.13;43.37;100216.44;109412;1243;71818;-71
2023/07/01 10:21:23;;;;;;;4.60;4.10;;;;;;;29.11;43.86;100215.17;109516;1243;62421;-71
2023/07/01 10:23:54;;;;;;;5.00;3.90;;;;;;;29.01;44.23;100207.80;109501;1243;63197;-71
2023/07/01 10:26:31;;;;;;;7.50;4.50;;;;;;;29.20;44.96;100199.80;109332;1247;61474;-71
2023/07/01 10:29:31;;;;;;;5.80;4.10;;;;;;;29.21;43.61;100198.58;109526;1243;61448;-72
2023/07/01 10:32:09;;;;;;;5.40;3.80;;;;;;;29.73;42.57;100200.23;109450;1243;62760;-72
2023/07/01 10:34:58;;;;;;;6.50;3.80;;;;;;;30.47;41.83;100202.59;109525;1244;64299;-71
2023/07/01 10:37:28;;;;;;;5.80;4.10;;;;;;;30.94;41.18;100196.46;109332;1244;69753;-71
2023/07/01 10:39:59;;;;;;;4.50;4.00;;;;;;;31.25;40.74;100196.60;109366;1244;73738;-71
2023/07/01 10:42:35;;;;;;;7.80;4.50;;;;;;;31.70;39.87;100195.90;109260;1248;61069;-71
2023/07/01 10:45:10;;;;;;;4.60;3.50;;;;;;;31.83;38.41;100194.24;109323;1244;57673;-71
2023/07/01 10:48:03;;;;;;;6.10;3.60;;;;;;;32.33;36.92;100187.02;109443;1244;74073;-71
2023/07/01 10:50:32;;;;;;;4.80;3.50;;;;;;;31.22;38.91;100186.02;109372;1244;61590;-70
2023/07/01 10:53:02;;;;;;;4.50;3.40;;;;;;;31.28;39.17;100189.98;109424;1244;60023;-71
2023/07/01 10:55:40;;;;;;;5.90;3.40;;;;;;;32.14;37.78;100186.48;109134;1244;63576;-71
2023/07/01 10:58:21;;;;;;;8.90;3.40;;;;;;;31.60;37.70;100182.22;109234;1245;57152;-71
2023/07/01 11:00:54;;;;;;;9.10;3.40;;;;;;;31.89;36.97;100182.07;109377;1244;57244;-70
2023/07/01 11:03:35;;;;;;;4.20;3.10;;;;;;;32.79;35.94;100184.16;109392;1244;62999;-71
2023/07/01 11:06:10;;;;;;;;;;;;;;;33.17;34.97;100180.13;109388;1244;61762;-71
2023/07/01 11:08:54;;;;;;;4.60;2.80;;;;;;;34.11;33.14;100174.91;109211;1244;70534;-71
2023/07/01 11:11:26;;;;;;;3.70;2.80;;;;;;;34.28;32.05;100172.69;109273;1245;63817;-71
2023/07/01 11:14:10;;;;;;;4.80;3.30;;;;;;;34.24;32.29;100164.27;109276;1247;57457;-71
2023/07/01 11:16:39;;;;;;;4.00;3.00;;;;;;;34.12;33.20;100160.85;109247;1244;61038;-71
2023/07/01 11:19:14;;;;;;;4.40;2.80;;;;;;;34.74;32.12;100161.56;109221;1244;64509;-71
2023/07/01 11:21:44;;;;;;;5.20;3.20;;;;;;;34.24;32.82;100161.87;109199;1245;71723;-71
2023/07/01 11:24:22;;;;;;;5.80;3.70;;;;;;;32.89;34.30;100164.36;109333;1244;61979;-71
2023/07/01 11:26:50;;;;;;;5.80;3.50;;;;;;;32.49;34.70;100157.88;109161;1245;75256;-71